Time;durP1;ratioP1;P1;durP2;ratioP2;P2;SDS_P1;SDS_P2;PMS_P1;PMS_P2;Temp;Humidity;BMP_temperature;BMP_pressure;BME280_temperature;BME280_humidity;BME280_pressure;Samples;Min_cycle;Max_cycle;Signal;HPM_P1;HPM_P2
2023/01/16 00:01:38;;;;;;;4.20;3.20;;;4.50;99.90;;;;;;4987018;28;20223;-94
2023/01/16 00:04:05;;;;;;;4.93;3.43;;;4.50;99.90;;;;;;4997043;28;20221;-95
2023/01/16 00:06:32;;;;;;;6.23;3.90;;;4.60;99.90;;;;;;4984778;28;20218;-94
2023/01/16 00:09:02;;;;;;;6.03;4.13;;;4.60;99.90;;;;;;4976987;28;20227;-95
2023/01/16 00:11:30;;;;;;;5.07;3.90;;;4.60;99.90;;;;;;4978073;28;20233;-95
2023/01/16 00:13:58;;;;;;;5.63;3.57;;;4.60;99.90;;;;;;4988095;28;20262;-94
2023/01/16 00:16:24;;;;;;;5.53;4.23;;;4.60;99.90;;;;;;4988769;28;20236;-94
2023/01/16 00:18:51;;;;;;;6.20;3.83;;;4.60;99.90;;;;;;4991225;28;20255;-95
2023/01/16 00:21:19;;;;;;;5.30;4.00;;;4.60;99.90;;;;;;4974005;28;20208;-94
2023/01/16 00:23:48;;;;;;;6.97;4.70;;;4.60;99.90;;;;;;4972091;28;20347;-95
2023/01/16 00:26:18;;;;;;;6.77;3.67;;;4.70;99.90;;;;;;5006544;28;20245;-94
2023/01/16 00:28:46;;;;;;;6.27;4.23;;;4.70;99.90;;;;;;4996495;28;20218;-95
2023/01/16 00:31:13;;;;;;;6.33;4.40;;;4.70;99.90;;;;;;4992516;28;20419;-94
2023/01/16 00:33:40;;;;;;;7.00;4.57;;;4.70;99.90;;;;;;4990740;28;20279;-95
2023/01/16 00:36:08;;;;;;;7.30;4.67;;;4.70;99.90;;;;;;4986687;28;20507;-96
2023/01/16 00:38:35;;;;;;;7.87;4.80;;;4.70;99.90;;;;;;4991613;28;20212;-95
2023/01/16 00:41:01;;;;;;;5.17;4.03;;;4.80;99.90;;;;;;4988981;28;20219;-96
2023/01/16 00:43:28;;;;;;;5.30;4.20;;;4.70;99.90;;;;;;4986951;28;20235;-95
2023/01/16 00:45:57;;;;;;;5.97;4.00;;;4.70;99.90;;;;;;4983832;28;20229;-95
2023/01/16 00:48:24;;;;;;;6.13;4.07;;;4.70;99.90;;;;;;4968172;28;21862;-95
2023/01/16 00:50:51;;;;;;;5.87;4.10;;;4.70;99.90;;;;;;4969986;28;20305;-96
2023/01/16 00:53:18;;;;;;;7.23;3.80;;;4.70;99.90;;;;;;4978193;28;20212;-95
2023/01/16 00:55:45;;;;;;;4.57;3.30;;;4.70;99.90;;;;;;4988751;28;20345;-96
2023/01/16 00:58:12;;;;;;;5.70;3.60;;;4.80;99.90;;;;;;4991621;28;20243;-96
2023/01/16 01:00:39;;;;;;;6.10;3.80;;;4.70;99.90;;;;;;4991202;28;20208;-96
2023/01/16 01:03:07;;;;;;;5.70;3.27;;;4.70;99.90;;;;;;4992260;28;20211;-95
2023/01/16 01:05:37;;;;;;;6.97;3.40;;;4.70;99.90;;;;;;5006608;28;20297;-96
2023/01/16 01:08:05;;;;;;;7.43;3.50;;;4.70;99.90;;;;;;4991600;28;20390;-96
2023/01/16 01:10:32;;;;;;;5.00;2.93;;;4.80;99.90;;;;;;4993753;28;20254;-96
2023/01/16 01:12:59;;;;;;;8.00;3.50;;;4.70;99.90;;;;;;4990080;28;20271;-96
2023/01/16 01:15:26;;;;;;;4.77;2.73;;;4.80;99.90;;;;;;4990110;28;20233;-96
2023/01/16 01:17:53;;;;;;;7.57;3.10;;;4.70;99.90;;;;;;4973886;28;20430;-96
2023/01/16 01:20:22;;;;;;;7.63;3.23;;;4.70;99.90;;;;;;4992438;28;20214;-95
2023/01/16 01:22:49;;;;;;;5.20;2.80;;;4.70;99.90;;;;;;4990770;28;20346;-96
2023/01/16 01:25:16;;;;;;;6.30;3.00;;;4.80;99.90;;;;;;4988026;28;20227;-96
2023/01/16 01:27:43;;;;;;;5.07;3.00;;;4.80;99.90;;;;;;5008540;28;20247;-96
2023/01/16 01:30:11;;;;;;;6.10;2.80;;;4.80;99.90;;;;;;4995921;28;20219;-96
2023/01/16 01:32:38;;;;;;;7.27;2.77;;;4.80;99.90;;;;;;5007011;28;20215;-96
2023/01/16 01:35:06;;;;;;;4.53;2.90;;;4.80;99.90;;;;;;4971911;28;20217;-94
2023/01/16 01:37:35;;;;;;;4.60;2.50;;;4.80;99.90;;;;;;4969952;28;20229;-95
2023/01/16 01:40:02;;;;;;;6.23;3.20;;;4.80;99.90;;;;;;4978267;28;20204;-96
2023/01/16 01:42:44;;;;;;;4.97;2.57;;;4.70;99.90;;;;;;4987987;28;20288;-95
2023/01/16 01:45:16;;;;;;;5.00;2.37;;;4.70;99.90;;;;;;5002325;28;20211;-95
2023/01/16 01:47:49;;;;;;;7.03;2.47;;;4.70;99.90;;;;;;5006379;28;20243;-95
2023/01/16 01:50:22;;;;;;;5.47;2.53;;;4.70;99.90;;;;;;4984899;28;20235;-95
2023/01/16 01:52:51;;;;;;;3.40;2.00;;;4.70;99.90;;;;;;4974089;28;20256;-95
2023/01/16 01:55:21;;;;;;;3.70;2.00;;;4.70;99.90;;;;;;4992061;28;20309;-95
2023/01/16 01:57:54;;;;;;;4.37;2.10;;;4.70;99.90;;;;;;4983174;28;20222;-95
2023/01/16 02:00:23;;;;;;;3.20;1.73;;;4.60;99.90;;;;;;4981985;28;20436;-95
2023/01/16 02:03:04;;;;;;;5.67;2.37;;;4.60;99.90;;;;;;4964496;28;20286;-94
2023/01/16 02:05:35;;;;;;;4.37;1.67;;;4.60;99.90;;;;;;4991613;28;20226;-95
2023/01/16 02:08:05;;;;;;;3.77;1.57;;;4.60;99.90;;;;;;4993434;28;20298;-95
2023/01/16 02:10:39;;;;;;;5.33;1.80;;;4.60;99.90;;;;;;4988677;28;20223;-95
2023/01/16 02:13:06;;;;;;;5.27;1.57;;;4.60;99.90;;;;;;4986529;28;20219;-94
2023/01/16 02:15:34;;;;;;;5.20;1.80;;;4.50;99.90;;;;;;4988519;28;20274;-94
2023/01/16 02:21:12;;;;;;;4.67;1.70;;;4.50;99.90;;;;;;5001414;28;20235;-95
2023/01/16 02:24:13;;;;;;;4.77;2.13;;;4.50;99.90;;;;;;4987650;28;20211;-96
2023/01/16 02:27:18;;;;;;;4.13;1.60;;;4.50;99.90;;;;;;5007202;28;20254;-96
2023/01/16 02:30:09;;;;;;;3.23;1.50;;;4.50;99.90;;;;;;4991192;28;20222;-96
2023/01/16 02:32:52;;;;;;;3.63;1.70;;;4.50;99.90;;;;;;4990844;28;20235;-95
2023/01/16 02:35:34;;;;;;;4.90;2.20;;;4.50;99.90;;;;;;4993019;23;20227;-94
2023/01/16 02:38:09;;;;;;;6.67;3.83;;;4.50;99.90;;;;;;5007592;28;21563;-95
2023/01/16 02:40:44;;;;;;;11.47;5.43;;;4.50;99.90;;;;;;4989379;28;20223;-94
2023/01/16 02:43:22;;;;;;;9.87;5.33;;;4.40;99.90;;;;;;4991531;28;20228;-94
2023/01/16 02:45:57;;;;;;;7.40;3.67;;;4.40;99.90;;;;;;4987032;28;20292;-94
2023/01/16 02:48:34;;;;;;;6.50;3.30;;;4.40;99.90;;;;;;5007810;28;22507;-95
2023/01/16 02:51:07;;;;;;;6.27;2.50;;;4.40;99.90;;;;;;4983508;28;20312;-96
2023/01/16 02:53:42;;;;;;;4.40;1.67;;;4.40;99.90;;;;;;4989513;28;20232;-95
2023/01/16 02:56:13;;;;;;;3.63;1.50;;;4.30;99.90;;;;;;4988374;28;20211;-95
2023/01/16 02:58:43;;;;;;;2.20;1.33;;;4.30;99.90;;;;;;4988710;28;20345;-95
2023/01/16 03:01:12;;;;;;;4.47;1.57;;;4.30;99.90;;;;;;4987721;28;21064;-94
2023/01/16 03:03:43;;;;;;;5.00;1.47;;;4.30;99.90;;;;;;5003948;28;20227;-96
2023/01/16 03:06:25;;;;;;;3.07;1.43;;;4.30;99.90;;;;;;4988739;28;20227;-95
2023/01/16 03:09:01;;;;;;;4.17;1.20;;;4.10;99.90;;;;;;4989859;28;20238;-95
2023/01/16 03:11:30;;;;;;;4.50;1.30;;;4.20;99.90;;;;;;5002751;28;20219;-95
2023/01/16 03:14:12;;;;;;;5.30;1.30;;;4.00;99.90;;;;;;4984384;28;20249;-95
2023/01/16 03:16:48;;;;;;;4.20;1.30;;;4.00;99.90;;;;;;4986701;28;20525;-94
2023/01/16 03:19:28;;;;;;;2.30;1.13;;;3.90;99.90;;;;;;4982474;28;20230;-95
2023/01/16 03:22:07;;;;;;;3.60;1.47;;;3.90;99.90;;;;;;4989932;28;20231;-95
2023/01/16 03:24:45;;;;;;;2.90;1.30;;;3.80;99.90;;;;;;4984789;28;20485;-95
2023/01/16 03:27:23;;;;;;;6.87;1.50;;;3.70;99.90;;;;;;4988417;28;20281;-94
2023/01/16 03:29:59;;;;;;;4.87;1.27;;;3.70;99.90;;;;;;4988328;28;20211;-95
2023/01/16 03:32:33;;;;;;;4.07;1.40;;;3.70;99.90;;;;;;4991101;28;20363;-95
2023/01/16 03:35:06;;;;;;;5.47;1.80;;;3.70;99.90;;;;;;5001228;28;20210;-94
2023/01/16 03:37:40;;;;;;;2.30;1.30;;;3.60;99.90;;;;;;4993470;28;20252;-95
2023/01/16 03:40:11;;;;;;;3.30;1.43;;;3.60;99.90;;;;;;5004484;28;20203;-96
2023/01/16 03:42:42;;;;;;;4.33;1.27;;;3.60;99.90;;;;;;4989077;28;20203;-95
2023/01/16 03:45:14;;;;;;;7.37;1.50;;;3.60;99.90;;;;;;4986858;28;20441;-93
2023/01/16 03:47:47;;;;;;;7.43;1.23;;;3.50;99.90;;;;;;4994844;28;20241;-95
2023/01/16 03:50:22;;;;;;;2.37;1.00;;;3.60;99.90;;;;;;4995550;28;20278;-94
2023/01/16 03:52:54;;;;;;;4.40;1.57;;;3.50;99.90;;;;;;5006039;28;20227;-95
2023/01/16 03:55:28;;;;;;;3.00;1.60;;;3.50;99.90;;;;;;5005648;28;20238;-95
2023/01/16 03:57:59;;;;;;;4.67;1.40;;;3.40;99.90;;;;;;4988575;28;20250;-95
2023/01/16 04:00:32;;;;;;;3.87;1.30;;;3.40;99.90;;;;;;5005459;28;20275;-94
2023/01/16 04:03:07;;;;;;;5.97;1.30;;;3.40;99.90;;;;;;5002645;28;20207;-95
2023/01/16 04:05:47;;;;;;;3.50;1.40;;;3.40;99.90;;;;;;4989331;28;20424;-94
2023/01/16 04:08:19;;;;;;;6.27;1.70;;;3.50;99.90;;;;;;4984382;28;20328;-95
2023/01/16 04:10:49;;;;;;;4.47;1.33;;;3.40;99.90;;;;;;5006298;28;20212;-95
2023/01/16 04:13:23;;;;;;;5.23;0.90;;;3.50;99.90;;;;;;4986075;28;20221;-95
2023/01/16 04:15:55;;;;;;;5.80;1.20;;;3.50;99.90;;;;;;4990870;28;20222;-96
2023/01/16 04:18:29;;;;;;;4.43;1.03;;;3.50;99.90;;;;;;4988078;28;20235;-96
2023/01/16 04:20:58;;;;;;;3.47;1.10;;;3.50;99.90;;;;;;4990365;28;20225;-95
2023/01/16 04:23:25;;;;;;;4.23;1.20;;;3.50;99.90;;;;;;4984345;28;20274;-95
2023/01/16 04:25:52;;;;;;;6.97;1.30;;;3.60;99.90;;;;;;4979760;28;20230;-96
2023/01/16 04:28:19;;;;;;;3.90;1.50;;;3.60;99.90;;;;;;4987280;28;20214;-96
2023/01/16 04:30:49;;;;;;;3.10;1.20;;;3.60;99.90;;;;;;4988509;28;20456;-95
2023/01/16 04:33:16;;;;;;;2.20;1.30;;;3.50;99.90;;;;;;4990094;28;20206;-95
2023/01/16 04:35:42;;;;;;;2.73;1.00;;;3.60;99.90;;;;;;4987195;28;20317;-96
2023/01/16 04:38:12;;;;;;;4.67;1.30;;;3.60;99.90;;;;;;4985930;28;20215;-95
2023/01/16 04:40:38;;;;;;;2.87;1.27;;;3.60;99.90;;;;;;4986409;28;20227;-95
2023/01/16 04:43:05;;;;;;;2.70;1.10;;;3.60;99.90;;;;;;5002427;28;20215;-95
2023/01/16 04:45:32;;;;;;;7.73;1.10;;;3.60;99.90;;;;;;4989614;28;20236;-95
2023/01/16 04:47:59;;;;;;;4.00;1.33;;;3.70;99.90;;;;;;4983409;28;20234;-95
2023/01/16 04:50:26;;;;;;;3.90;1.07;;;3.70;99.90;;;;;;4984737;28;20407;-95
2023/01/16 04:52:53;;;;;;;3.40;1.30;;;3.70;99.90;;;;;;5004452;28;20223;-95
2023/01/16 04:55:21;;;;;;;5.13;1.10;;;3.70;99.90;;;;;;4998690;28;20289;-95
2023/01/16 04:57:48;;;;;;;1.53;1.00;;;3.70;99.90;;;;;;4987608;28;20291;-96
2023/01/16 05:00:16;;;;;;;2.77;1.00;;;3.70;99.90;;;;;;4987520;28;20235;-96
2023/01/16 05:05:30;;;;;;;5.33;1.23;;;3.70;99.90;;;;;;4948958;28;20672;-81
2023/01/16 05:10:43;;;;;;;3.33;1.40;;;3.70;99.90;;;;;;4946644;28;20230;-83
2023/01/16 05:13:10;;;;;;;3.87;1.07;;;3.70;99.90;;;;;;4945931;28;20602;-82
2023/01/16 05:15:36;;;;;;;4.80;1.00;;;3.70;99.90;;;;;;4927504;29;20237;-81
2023/01/16 05:18:05;;;;;;;4.27;1.00;;;3.70;99.90;;;;;;4947467;28;20841;-81
2023/01/16 05:20:32;;;;;;;3.73;1.00;;;3.80;99.90;;;;;;4930634;29;20220;-83
2023/01/16 05:22:58;;;;;;;9.50;1.13;;;3.70;99.90;;;;;;4946211;28;20290;-81
2023/01/16 05:25:25;;;;;;;1.37;0.90;;;3.70;99.90;;;;;;4945798;28;20240;-80
2023/01/16 05:27:53;;;;;;;4.47;0.97;;;3.70;99.90;;;;;;4947277;29;20337;-83
2023/01/16 05:30:20;;;;;;;2.97;0.90;;;3.80;99.90;;;;;;4949684;28;20220;-81
2023/01/16 05:32:47;;;;;;;5.00;0.97;;;3.80;99.90;;;;;;4949257;28;20264;-82
2023/01/16 05:35:14;;;;;;;3.20;0.90;;;3.80;99.90;;;;;;4929815;28;20251;-81
2023/01/16 05:37:40;;;;;;;6.33;1.10;;;3.80;99.90;;;;;;4941913;29;20231;-80
2023/01/16 05:40:08;;;;;;;2.87;1.00;;;3.80;99.90;;;;;;4945431;28;20231;-82
2023/01/16 05:42:35;;;;;;;4.13;0.97;;;3.80;99.90;;;;;;4932078;28;20343;-85
2023/01/16 05:45:04;;;;;;;2.80;1.00;;;3.70;99.90;;;;;;4950257;28;20220;-82
2023/01/16 05:47:31;;;;;;;2.23;0.83;;;3.70;99.90;;;;;;4950886;28;20230;-81
2023/01/16 05:49:58;;;;;;;2.63;1.00;;;3.70;99.90;;;;;;4951962;28;20228;-81
2023/01/16 05:52:26;;;;;;;3.10;1.10;;;3.70;99.90;;;;;;4949437;28;20231;-79
2023/01/16 05:54:53;;;;;;;5.37;1.30;;;3.60;99.90;;;;;;4946960;28;20306;-80
2023/01/16 05:57:20;;;;;;;3.87;1.03;;;3.60;99.90;;;;;;4942677;28;20221;-83
2023/01/16 05:59:49;;;;;;;3.77;1.10;;;3.60;99.90;;;;;;4945454;28;20589;-80
2023/01/16 06:02:17;;;;;;;4.03;1.10;;;3.70;99.90;;;;;;4964134;28;20851;-80
2023/01/16 06:04:44;;;;;;;3.40;1.40;;;3.60;99.90;;;;;;4966630;28;20236;-82
2023/01/16 06:07:12;;;;;;;4.13;1.67;;;3.60;99.90;;;;;;4966667;28;20219;-81
2023/01/16 06:09:39;;;;;;;10.47;5.27;;;3.60;99.90;;;;;;4965489;28;21016;-81
2023/01/16 06:12:07;;;;;;;9.07;4.17;;;3.60;99.90;;;;;;4961619;28;20731;-80
2023/01/16 06:14:34;;;;;;;20.80;9.77;;;3.50;99.90;;;;;;4963261;28;20267;-80
2023/01/16 06:17:00;;;;;;;12.43;5.83;;;3.60;99.90;;;;;;4955871;28;20224;-80
2023/01/16 06:19:28;;;;;;;14.80;7.90;;;3.60;99.90;;;;;;4953509;28;20769;-82
2023/01/16 06:21:55;;;;;;;5.87;2.00;;;3.60;99.90;;;;;;4960574;28;20234;-82
2023/01/16 06:24:22;;;;;;;5.80;2.10;;;3.50;99.90;;;;;;4947405;28;20228;-81
2023/01/16 06:26:48;;;;;;;5.60;2.80;;;3.60;99.90;;;;;;4961097;28;20231;-79
2023/01/16 06:29:15;;;;;;;6.83;2.63;;;3.50;99.90;;;;;;4964416;28;20850;-81
2023/01/16 06:31:42;;;;;;;8.20;3.27;;;3.50;99.90;;;;;;4961627;28;20758;-83
2023/01/16 06:34:09;;;;;;;8.90;3.73;;;3.40;99.90;;;;;;4949340;28;20225;-81
2023/01/16 06:36:37;;;;;;;7.40;4.03;;;3.50;99.90;;;;;;4951609;28;20278;-80
2023/01/16 06:39:04;;;;;;;3.60;1.23;;;3.50;99.90;;;;;;4961606;28;20326;-81
2023/01/16 06:41:31;;;;;;;5.20;2.40;;;3.40;99.90;;;;;;4964046;28;20235;-84
2023/01/16 06:43:57;;;;;;;8.63;3.73;;;3.30;99.90;;;;;;4960392;28;20233;-79
2023/01/16 06:46:24;;;;;;;2.40;1.50;;;3.30;99.90;;;;;;4963666;28;20365;-78
2023/01/16 06:48:51;;;;;;;5.97;2.93;;;3.40;99.90;;;;;;4961512;28;21785;-78
2023/01/16 06:51:18;;;;;;;3.57;1.70;;;3.40;99.90;;;;;;4963751;28;20269;-78
2023/01/16 06:53:46;;;;;;;5.67;2.00;;;3.40;99.90;;;;;;4963489;28;20227;-79
2023/01/16 06:56:12;;;;;;;4.93;1.67;;;3.30;99.90;;;;;;4963886;28;20232;-78
2023/01/16 06:58:39;;;;;;;4.17;2.10;;;3.40;99.90;;;;;;4960473;28;20257;-80
2023/01/16 07:01:06;;;;;;;2.70;1.00;;;3.30;99.90;;;;;;4960854;28;20695;-80
2023/01/16 07:03:32;;;;;;;3.53;1.30;;;3.30;99.90;;;;;;4953357;28;20230;-79
2023/01/16 07:05:59;;;;;;;2.83;1.37;;;3.30;99.90;;;;;;4948615;28;20315;-78
2023/01/16 07:08:26;;;;;;;2.97;1.00;;;3.30;99.90;;;;;;4962707;28;20237;-80
2023/01/16 07:10:54;;;;;;;3.00;0.97;;;3.30;99.90;;;;;;4942896;28;20231;-80
2023/01/16 07:13:27;;;;;;;2.73;0.77;;;3.30;99.90;;;;;;4963496;28;20224;-79
2023/01/16 07:24:22;;;;;;;6.63;1.30;;;3.30;99.90;;;;;;4950443;28;20223;-79
2023/01/16 07:26:57;;;;;;;3.63;1.00;;;3.30;99.90;;;;;;4964807;28;20252;-80
2023/01/16 07:29:24;;;;;;;4.03;1.27;;;3.30;99.90;;;;;;4966925;28;20237;-80
2023/01/16 07:31:50;;;;;;;2.60;0.80;;;3.30;99.90;;;;;;4965549;28;20229;-80
2023/01/16 07:34:17;;;;;;;2.33;1.10;;;3.30;99.90;;;;;;4965177;28;20233;-80
2023/01/16 07:36:44;;;;;;;3.73;0.70;;;3.30;99.90;;;;;;4965277;28;20876;-80
2023/01/16 07:39:10;;;;;;;3.70;0.83;;;3.30;99.90;;;;;;4966924;28;20225;-79
2023/01/16 07:41:37;;;;;;;1.97;0.90;;;3.20;99.90;;;;;;4965853;28;20227;-80
2023/01/16 07:44:07;;;;;;;4.20;0.90;;;3.20;99.90;;;;;;4946780;28;20220;-79
2023/01/16 07:46:33;;;;;;;1.47;0.73;;;3.20;99.90;;;;;;4965005;28;20241;-80
2023/01/16 07:49:00;;;;;;;4.53;1.03;;;3.20;99.90;;;;;;4966711;28;20224;-80
2023/01/16 07:51:27;;;;;;;1.40;1.00;;;3.20;99.90;;;;;;4959062;28;20228;-80
2023/01/16 07:53:54;;;;;;;2.30;0.87;;;3.20;99.90;;;;;;4965215;28;20238;-80
2023/01/16 07:56:20;;;;;;;2.40;1.00;;;3.20;99.90;;;;;;4965710;28;20228;-81
2023/01/16 07:58:49;;;;;;;5.23;1.20;;;3.20;99.90;;;;;;4965836;28;20243;-79
2023/01/16 08:01:17;;;;;;;1.70;0.70;;;3.10;99.90;;;;;;4962107;28;20215;-81
2023/01/16 08:03:43;;;;;;;3.40;1.27;;;3.10;99.90;;;;;;4963738;28;20234;-79
2023/01/16 08:06:10;;;;;;;2.53;0.83;;;3.00;99.90;;;;;;4947435;28;20246;-79
2023/01/16 08:08:37;;;;;;;3.93;1.70;;;3.10;99.90;;;;;;4964414;28;20230;-79
2023/01/16 08:11:35;;;;;;;1.67;0.80;;;3.00;99.90;;;;;;4960604;28;20565;-80
2023/01/16 08:13:51;;;;;;;1.90;1.00;;;3.10;99.90;;;;;;4965316;28;20304;-80
2023/01/16 08:16:19;;;;;;;4.00;1.07;;;3.00;99.90;;;;;;4965100;28;20240;-79
2023/01/16 08:18:48;;;;;;;2.70;0.80;;;3.10;99.90;;;;;;4965897;28;20234;-80
2023/01/16 08:21:15;;;;;;;2.20;0.80;;;3.10;99.90;;;;;;4959376;28;20261;-80
2023/01/16 08:23:42;;;;;;;3.07;0.90;;;3.00;99.90;;;;;;4964978;28;20317;-80
2023/01/16 08:26:09;;;;;;;3.53;0.83;;;3.00;99.90;;;;;;4965056;28;20309;-80
2023/01/16 08:28:36;;;;;;;5.63;1.00;;;3.10;99.90;;;;;;4965931;28;20228;-79
2023/01/16 08:31:08;;;;;;;1.73;0.90;;;3.10;99.90;;;;;;4949206;28;20831;-80
2023/01/16 08:33:37;;;;;;;3.73;1.00;;;3.20;99.90;;;;;;4964308;28;20231;-80
2023/01/16 08:36:04;;;;;;;3.80;1.10;;;3.20;99.90;;;;;;4965014;28;20223;-81
2023/01/16 08:38:31;;;;;;;3.90;1.33;;;3.20;99.90;;;;;;4952126;28;20310;-80
2023/01/16 08:40:58;;;;;;;1.60;0.67;;;3.20;99.90;;;;;;4961638;28;20233;-79
2023/01/16 08:51:54;;;;;;;3.20;1.10;;;3.40;99.90;;;;;;4921409;28;20225;-79
2023/01/16 08:54:21;;;;;;;4.30;1.00;;;3.50;99.90;;;;;;4969069;28;20225;-80
2023/01/16 08:56:47;;;;;;;3.60;1.00;;;3.60;99.90;;;;;;4947418;28;21093;-79
2023/01/16 08:59:14;;;;;;;3.43;1.17;;;3.70;99.90;;;;;;4959002;28;20223;-80
2023/01/16 09:01:42;;;;;;;2.97;0.90;;;3.70;99.90;;;;;;4957845;28;20233;-80
2023/01/16 09:04:10;;;;;;;1.90;1.10;;;3.90;99.90;;;;;;4964997;28;20259;-80
2023/01/16 09:06:38;;;;;;;2.93;1.30;;;4.00;99.90;;;;;;4960514;28;20229;-81
2023/01/16 09:09:05;;;;;;;3.40;1.47;;;4.20;99.90;;;;;;4965483;28;20228;-80
2023/01/16 09:14:16;;;;;;;3.50;0.90;;;4.70;99.90;;;;;;4947718;28;20228;-80
2023/01/16 09:16:42;;;;;;;2.13;0.77;;;4.90;99.90;;;;;;4966594;28;20225;-80
2023/01/16 09:19:10;;;;;;;4.20;1.20;;;5.00;99.90;;;;;;4968092;28;20232;-80
2023/01/16 09:21:37;;;;;;;2.07;0.80;;;5.00;99.90;;;;;;4968859;28;20232;-80
2023/01/16 09:24:04;;;;;;;2.60;1.00;;;5.10;99.90;;;;;;4967404;28;20240;-79
2023/01/16 09:26:31;;;;;;;3.00;0.77;;;5.10;99.90;;;;;;4964884;28;20275;-80
2023/01/16 09:28:58;;;;;;;1.87;1.00;;;5.00;99.90;;;;;;4959020;28;20228;-80
2023/01/16 09:31:24;;;;;;;2.33;0.87;;;5.00;99.90;;;;;;4949060;28;20607;-80
2023/01/16 09:33:52;;;;;;;2.63;1.00;;;5.00;99.90;;;;;;4966525;28;20236;-80
2023/01/16 09:36:20;;;;;;;2.53;1.30;;;4.90;99.90;;;;;;4961396;28;20218;-80
2023/01/16 09:38:47;;;;;;;2.70;0.90;;;4.80;99.90;;;;;;4968528;28;20232;-80
2023/01/16 09:43:35;;;;;;;4.97;2.27;;;4.80;99.90;;;;;;4968400;28;20225;-80
2023/01/16 09:44:07;;;;;;;3.10;0.90;;;4.80;99.90;;;;;;4960301;28;20237;-80
2023/01/16 09:46:39;;;;;;;3.07;1.50;;;4.70;99.90;;;;;;4948706;28;20311;-80
2023/01/16 09:49:14;;;;;;;3.07;0.93;;;4.60;99.90;;;;;;4966393;28;20286;-80
2023/01/16 09:58:34;;;;;;;3.83;1.10;;;4.50;99.90;;;;;;4966534;28;20231;-80
2023/01/16 10:00:20;;;;;;;3.33;1.10;;;4.20;99.90;;;;;;4909240;28;20269;-79
2023/01/16 10:02:47;;;;;;;3.83;1.07;;;4.20;99.90;;;;;;4965688;28;20235;-80
2023/01/16 10:05:15;;;;;;;2.27;1.10;;;4.10;99.90;;;;;;4910775;28;1027611;-79
2023/01/16 10:08:00;;;;;;;3.07;1.20;;;4.20;99.90;;;;;;4956569;28;20701;-80
2023/01/16 10:10:41;;;;;;;2.83;1.20;;;4.10;99.90;;;;;;4967820;28;20224;-80
2023/01/16 10:13:39;;;;;;;1.90;1.40;;;4.00;99.90;;;;;;4943874;28;20232;-79
2023/01/16 10:16:16;;;;;;;2.90;1.37;;;4.00;99.90;;;;;;4970024;23;20229;-81
2023/01/16 10:18:53;;;;;;;2.70;1.10;;;4.00;99.90;;;;;;4945801;28;20386;-81
2023/01/16 10:21:52;;;;;;;2.53;1.10;;;4.10;99.90;;;;;;4929465;29;20217;-81
2023/01/16 10:24:31;;;;;;;3.53;1.30;;;4.10;99.90;;;;;;4947438;28;20707;-81
2023/01/16 10:27:00;;;;;;;2.40;1.13;;;4.00;99.90;;;;;;4933272;29;20232;-81
2023/01/16 10:29:31;;;;;;;6.23;1.40;;;4.00;99.90;;;;;;4930529;28;20225;-80
2023/01/16 10:32:02;;;;;;;3.80;1.43;;;4.10;99.90;;;;;;4926194;29;20230;-81
2023/01/16 10:34:34;;;;;;;2.27;1.10;;;4.10;99.90;;;;;;4934592;28;20236;-81
2023/01/16 10:37:01;;;;;;;3.57;1.47;;;4.10;99.90;;;;;;4939945;28;20229;-80
2023/01/16 10:39:33;;;;;;;3.87;1.20;;;4.20;99.90;;;;;;4947748;28;20231;-81
2023/01/16 10:50:29;;;;;;;4.10;1.47;;;4.30;99.90;;;;;;4944609;28;20225;-81
2023/01/16 10:52:56;;;;;;;3.87;1.20;;;4.30;99.90;;;;;;4946727;28;20247;-81
2023/01/16 10:55:24;;;;;;;2.33;1.20;;;4.40;99.90;;;;;;4934864;28;20232;-80
2023/01/16 10:57:55;;;;;;;2.73;1.20;;;4.40;99.90;;;;;;4942733;28;20232;-80
2023/01/16 11:00:28;;;;;;;2.70;1.03;;;4.50;99.90;;;;;;4943996;28;20933;-81
2023/01/16 11:02:59;;;;;;;3.70;1.10;;;4.60;99.90;;;;;;4944239;28;20273;-81
2023/01/16 11:05:29;;;;;;;3.27;1.17;;;4.70;99.90;;;;;;4946630;28;20237;-80
2023/01/16 11:08:02;;;;;;;2.43;1.00;;;4.80;99.90;;;;;;4947261;28;20280;-81
2023/01/16 11:10:30;;;;;;;2.77;1.10;;;4.90;99.90;;;;;;4946754;28;20571;-80
2023/01/16 11:18:49;;;;;;;4.57;1.10;;;5.10;99.90;;;;;;4889756;29;20239;-81
2023/01/16 11:21:24;;;;;;;2.07;0.90;;;5.20;99.90;;;;;;4932211;28;20233;-81
2023/01/16 11:23:58;;;;;;;4.30;1.33;;;5.20;99.90;;;;;;4947175;28;20607;-81
2023/01/16 11:26:27;;;;;;;3.60;0.93;;;5.30;99.90;;;;;;4946334;28;20233;-80
2023/01/16 11:28:56;;;;;;;2.03;0.80;;;5.30;99.90;;;;;;4937995;28;20618;-81
2023/01/16 11:31:26;;;;;;;1.83;0.90;;;5.20;99.90;;;;;;4946024;28;20227;-81
2023/01/16 11:34:00;;;;;;;1.90;1.00;;;5.20;99.90;;;;;;4944940;28;20239;-81
2023/01/16 11:36:31;;;;;;;2.20;0.97;;;5.30;99.90;;;;;;4946340;28;20342;-80
2023/01/16 11:38:59;;;;;;;3.33;1.10;;;5.30;99.90;;;;;;4938719;28;20303;-81
2023/01/16 11:41:32;;;;;;;1.60;1.00;;;5.30;99.90;;;;;;4945446;28;20322;-81
2023/01/16 11:46:59;;;;;;;1.73;0.70;;;5.30;99.90;;;;;;4944376;28;20639;-81
2023/01/16 11:49:29;;;;;;;1.87;0.87;;;5.20;99.90;;;;;;4934001;28;20268;-81
2023/01/16 11:52:02;;;;;;;2.63;1.03;;;5.20;99.90;;;;;;4934161;28;20762;-81
2023/01/16 11:54:32;;;;;;;2.20;0.80;;;5.20;99.90;;;;;;4945691;28;20229;-80
2023/01/16 11:57:14;;;;;;;2.80;1.17;;;5.20;99.90;;;;;;4946419;28;20226;-81
2023/01/16 11:59:54;;;;;;;2.17;0.83;;;5.30;99.90;;;;;;4932269;29;20230;-81
2023/01/16 12:02:42;;;;;;;2.03;1.00;;;5.30;99.90;;;;;;4937067;28;20231;-80
2023/01/16 12:08:19;;;;;;;2.47;1.00;;;5.40;99.90;;;;;;4945556;28;20230;-80
2023/01/16 12:10:52;;;;;;;2.67;1.00;;;5.40;99.90;;;;;;4941845;28;20230;-80
2023/01/16 12:16:23;;;;;;;2.00;0.80;;;5.40;99.90;;;;;;4942486;28;20222;-81
2023/01/16 12:19:04;;;;;;;2.13;0.90;;;5.40;99.90;;;;;;4949834;28;20233;-81
2023/01/16 12:21:36;;;;;;;1.20;0.80;;;5.40;99.90;;;;;;4960461;28;20232;-81
2023/01/16 12:24:29;;;;;;;1.73;0.77;;;5.40;99.90;;;;;;4931713;29;20220;-81
2023/01/16 12:27:13;;;;;;;2.73;0.77;;;5.20;99.90;;;;;;4933173;29;20220;-80
2023/01/16 12:29:53;;;;;;;3.03;0.90;;;5.20;99.90;;;;;;4950546;28;20233;-81
2023/01/16 12:32:37;;;;;;;1.67;0.80;;;5.20;99.90;;;;;;4929067;28;20232;-81
2023/01/16 12:35:29;;;;;;;1.50;0.80;;;5.20;99.90;;;;;;4949383;28;20890;-81
2023/01/16 12:38:15;;;;;;;1.60;0.90;;;5.30;99.90;;;;;;4949357;28;20317;-81
2023/01/16 12:44:22;;;;;;;2.50;0.93;;;5.20;99.90;;;;;;4940079;29;20249;-81
2023/01/16 12:47:01;;;;;;;3.67;1.00;;;5.20;99.90;;;;;;4948550;28;20906;-80
2023/01/16 12:49:39;;;;;;;1.70;0.87;;;5.30;99.90;;;;;;4947304;28;20698;-81
2023/01/16 12:52:30;;;;;;;2.00;0.93;;;5.30;99.90;;;;;;4932019;28;20233;-80
2023/01/16 12:55:09;;;;;;;0.90;0.60;;;5.30;99.90;;;;;;4949445;28;20338;-80
2023/01/16 12:57:55;;;;;;;2.57;0.70;;;5.30;99.90;;;;;;4955773;28;20277;-81
2023/01/16 13:00:26;;;;;;;1.53;0.60;;;5.30;99.90;;;;;;4931424;28;20597;-80
2023/01/16 13:03:00;;;;;;;1.60;0.70;;;5.30;99.90;;;;;;4949392;28;20239;-81
2023/01/16 13:05:30;;;;;;;3.33;1.03;;;5.30;99.90;;;;;;4937978;28;20239;-80
2023/01/16 13:08:02;;;;;;;1.10;0.70;;;5.30;99.90;;;;;;4933730;28;20228;-80
2023/01/16 13:13:25;;;;;;;1.60;0.60;;;5.30;99.90;;;;;;4944502;28;20219;-81
2023/01/16 13:16:08;;;;;;;1.83;0.90;;;5.30;99.90;;;;;;4948853;28;20238;-80
2023/01/16 13:18:40;;;;;;;2.30;0.93;;;5.30;99.90;;;;;;4943003;29;20237;-81
2023/01/16 13:21:17;;;;;;;2.43;0.83;;;5.30;99.90;;;;;;4943117;28;20227;-80
2023/01/16 13:23:48;;;;;;;2.10;0.70;;;5.20;99.90;;;;;;4948569;28;20927;-80
2023/01/16 13:26:17;;;;;;;1.70;0.80;;;5.20;99.90;;;;;;4947882;28;20225;-81
2023/01/16 13:28:50;;;;;;;2.33;0.77;;;5.20;99.90;;;;;;4950334;28;20223;-80
2023/01/16 13:31:26;;;;;;;1.30;0.87;;;5.10;99.90;;;;;;4949234;28;20234;-80
2023/01/16 13:33:57;;;;;;;2.63;0.90;;;5.10;99.90;;;;;;4945690;28;20316;-80
2023/01/16 13:36:44;;;;;;;1.57;0.80;;;5.00;99.90;;;;;;4938189;28;20232;-80
2023/01/16 13:39:48;;;;;;;2.97;0.70;;;5.00;99.90;;;;;;4931699;28;20969;-80
2023/01/16 13:42:16;;;;;;;1.90;0.70;;;5.00;99.90;;;;;;4949389;28;20283;-80
2023/01/16 13:47:38;;;;;;;2.47;0.87;;;5.00;99.90;;;;;;4932659;28;20228;-80
2023/01/16 13:50:14;;;;;;;1.67;0.70;;;5.00;99.90;;;;;;4948149;28;21402;-80
2023/01/16 13:52:42;;;;;;;4.13;1.20;;;5.00;99.90;;;;;;4948869;28;20229;-81
2023/01/16 13:55:24;;;;;;;1.50;0.90;;;5.00;99.90;;;;;;4954736;28;20322;-80
2023/01/16 13:57:54;;;;;;;2.30;0.80;;;5.00;99.90;;;;;;4947836;28;20236;-80
2023/01/16 14:00:21;;;;;;;2.27;0.97;;;5.00;99.90;;;;;;4940087;28;20250;-80
2023/01/16 14:03:03;;;;;;;3.37;0.90;;;5.00;99.90;;;;;;4948510;28;20316;-81
2023/01/16 14:05:50;;;;;;;2.10;0.80;;;5.00;99.90;;;;;;4947025;28;20255;-81
2023/01/16 14:09:07;;;;;;;3.37;0.83;;;5.00;99.90;;;;;;4948125;28;20233;-80
2023/01/16 14:11:37;;;;;;;1.80;0.90;;;5.00;99.90;;;;;;4926368;29;20226;-80
2023/01/16 14:17:16;;;;;;;2.27;0.90;;;5.00;99.90;;;;;;4947462;28;20877;-80
2023/01/16 14:19:53;;;;;;;1.87;0.90;;;5.00;99.90;;;;;;4947440;28;20244;-81
2023/01/16 14:25:19;;;;;;;1.93;0.70;;;5.00;99.90;;;;;;4940748;28;20773;-80
2023/01/16 14:27:50;;;;;;;2.77;1.13;;;5.00;99.90;;;;;;4938833;28;20373;-80
2023/01/16 14:30:23;;;;;;;4.37;1.07;;;5.00;99.90;;;;;;4947945;28;20228;-80
2023/01/16 14:32:54;;;;;;;3.07;1.07;;;5.00;99.90;;;;;;4941351;28;20257;-81